createdAt,value
2018-04-24T00:01:42.755Z,14.10
2018-04-24T00:04:10.898Z,14.10
2018-04-24T00:06:39.028Z,14.10
2018-04-24T00:09:07.484Z,14.10
2018-04-24T00:11:36.034Z,14.10
2018-04-24T00:14:04.180Z,14.10
2018-04-24T00:16:36.258Z,14.10
2018-04-24T00:19:04.358Z,14.20
2018-04-24T00:21:32.516Z,14.20
2018-04-24T00:24:00.743Z,14.20
2018-04-24T00:26:29.010Z,14.20
2018-04-24T00:28:57.470Z,14.20
2018-04-24T00:31:25.580Z,14.20
2018-04-24T00:33:53.702Z,14.20
2018-04-24T00:36:21.843Z,14.30
2018-04-24T00:38:49.967Z,14.30
2018-04-24T00:41:18.090Z,14.30
2018-04-24T00:43:46.215Z,14.30
2018-04-24T00:46:14.311Z,14.30
2018-04-24T00:48:42.425Z,14.30
2018-04-24T00:51:10.531Z,14.30
2018-04-24T00:53:41.482Z,14.30
2018-04-24T00:56:10.383Z,14.30
2018-04-24T00:58:38.633Z,14.30
2018-04-24T01:01:06.767Z,14.40
2018-04-24T01:03:34.887Z,14.40
2018-04-24T01:06:03.047Z,14.40
2018-04-24T01:08:32.058Z,14.40
2018-04-24T01:11:00.591Z,14.40
2018-04-24T01:13:28.710Z,14.40
2018-04-24T01:15:57.558Z,14.40
2018-04-24T01:18:25.671Z,14.40
2018-04-24T01:20:53.787Z,14.40
2018-04-24T01:23:21.891Z,14.40
2018-04-24T01:25:50.057Z,14.40
2018-04-24T01:28:18.166Z,14.40
2018-04-24T01:30:47.053Z,14.40
2018-04-24T01:33:15.637Z,14.50
2018-04-24T01:35:43.832Z,14.50
2018-04-24T01:38:12.090Z,14.50
2018-04-24T01:40:40.954Z,14.50
2018-04-24T01:43:09.057Z,14.50
2018-04-24T01:45:37.949Z,14.50
2018-04-24T01:48:06.088Z,14.50
2018-04-24T01:50:34.240Z,14.50
2018-04-24T01:53:02.334Z,14.50
2018-04-24T01:55:30.442Z,14.50
2018-04-24T01:57:59.328Z,14.50
2018-04-24T02:00:27.440Z,14.50
2018-04-24T02:02:55.978Z,14.50
2018-04-24T02:05:24.102Z,14.50
2018-04-24T02:07:52.220Z,14.50
2018-04-24T02:10:21.146Z,14.50
2018-04-24T02:12:49.256Z,14.50
2018-04-24T02:15:17.392Z,14.50
2018-04-24T02:17:45.520Z,14.40
2018-04-24T02:20:13.637Z,14.40
2018-04-24T02:22:45.808Z,14.40
2018-04-24T02:25:13.919Z,14.40
2018-04-24T02:27:42.045Z,14.40
2018-04-24T02:30:10.139Z,14.40
2018-04-24T02:32:38.301Z,14.40
2018-04-24T02:35:06.886Z,14.40
2018-04-24T02:37:35.003Z,14.40
2018-04-24T02:40:03.119Z,14.40
2018-04-24T02:42:31.993Z,14.40
2018-04-24T02:45:00.135Z,14.40
2018-04-24T02:47:28.237Z,14.40
2018-04-24T02:49:56.353Z,14.40
2018-04-24T02:52:25.243Z,14.40
2018-04-24T02:54:53.349Z,14.40
2018-04-24T02:57:21.496Z,14.40
2018-04-24T02:59:50.434Z,14.40
2018-04-24T03:02:18.542Z,14.40
2018-04-24T03:04:46.654Z,14.40
2018-04-24T03:07:14.925Z,14.40
2018-04-24T03:09:43.113Z,14.40
2018-04-24T03:12:11.309Z,14.30
2018-04-24T03:14:39.562Z,14.30
2018-04-24T03:17:07.762Z,14.30
2018-04-24T03:19:36.058Z,14.30
2018-04-24T03:22:04.296Z,14.30
2018-04-24T03:24:32.558Z,14.30
2018-04-24T03:27:00.712Z,14.30
2018-04-24T03:29:32.737Z,14.30
2018-04-24T03:32:00.882Z,14.30
2018-04-24T03:34:29.383Z,14.30
2018-04-24T03:36:57.587Z,14.20
2018-04-24T03:39:25.705Z,14.20
2018-04-24T03:41:53.862Z,14.20
2018-04-24T03:44:22.247Z,14.20
2018-04-24T03:46:50.474Z,14.20
2018-04-24T03:49:18.578Z,14.20
2018-04-24T03:51:46.698Z,14.30
2018-04-24T03:54:14.824Z,14.30
2018-04-24T03:56:42.929Z,14.30
2018-04-24T03:59:11.842Z,14.30
2018-04-24T04:01:40.987Z,14.30
2018-04-24T04:04:09.117Z,14.30
2018-04-24T04:06:37.217Z,14.30
2018-04-24T04:09:09.513Z,14.30
2018-04-24T04:11:37.641Z,14.30
2018-04-24T04:14:06.241Z,14.30
2018-04-24T04:16:34.453Z,14.30
2018-04-24T04:22:30.605Z,14.30
2018-04-24T04:24:58.765Z,14.30
2018-04-24T04:27:26.888Z,14.30
2018-04-24T04:29:55.003Z,14.30
2018-04-24T04:32:23.112Z,14.30
2018-04-24T04:34:51.992Z,14.30
2018-04-24T04:37:20.104Z,14.30
2018-04-24T04:39:48.225Z,14.30
2018-04-24T04:42:16.458Z,14.30
2018-04-24T04:44:44.691Z,14.30
2018-04-24T04:47:13.424Z,14.30
2018-04-24T04:49:41.540Z,14.30
2018-04-24T04:52:09.640Z,14.30
2018-04-24T04:54:37.787Z,14.20
2018-04-24T04:57:05.924Z,14.20
2018-04-24T04:59:34.196Z,14.20
2018-04-24T05:02:02.348Z,14.20
2018-04-24T05:04:30.497Z,14.20
2018-04-24T05:06:58.621Z,14.10
2018-04-24T05:09:26.747Z,14.20
2018-04-24T05:11:54.863Z,14.20
2018-04-24T05:14:23.041Z,14.30
2018-04-24T05:16:55.300Z,14.40
2018-04-24T05:19:23.414Z,14.40
2018-04-24T05:21:51.948Z,14.50
2018-04-24T05:24:20.091Z,14.60
2018-04-24T05:26:48.696Z,14.60
2018-04-24T05:29:16.816Z,14.70
2018-04-24T05:31:46.198Z,14.70
2018-04-24T05:34:14.306Z,14.70
2018-04-24T05:36:42.448Z,14.60
2018-04-24T05:39:11.175Z,14.60
2018-04-24T05:41:39.349Z,14.70
2018-04-24T05:44:08.241Z,14.70
2018-04-24T05:46:36.347Z,14.70
2018-04-24T05:49:04.442Z,14.80
2018-04-24T05:51:32.548Z,14.80
2018-04-24T05:54:00.726Z,14.80
2018-04-24T05:56:34.014Z,14.80
2018-04-24T05:59:02.155Z,14.90
2018-04-24T06:01:36.855Z,14.90
2018-04-24T06:04:04.976Z,14.90
2018-04-24T06:06:33.990Z,14.90
2018-04-24T06:09:02.892Z,15.00
2018-04-24T06:11:30.991Z,15.00
2018-04-24T06:13:59.166Z,15.00
2018-04-24T06:16:27.314Z,15.00
2018-04-24T06:18:55.413Z,15.10
2018-04-24T06:21:23.538Z,15.10
2018-04-24T06:23:51.885Z,15.10
2018-04-24T06:26:20.724Z,15.10
2018-04-24T06:28:48.846Z,15.10
2018-04-24T06:31:16.942Z,15.10
2018-04-24T06:33:45.252Z,15.10
2018-04-24T06:36:13.499Z,15.20
2018-04-24T06:38:41.638Z,15.20
2018-04-24T06:41:14.346Z,15.20
2018-04-24T06:43:42.498Z,15.20
2018-04-24T06:46:10.618Z,15.30
2018-04-24T06:48:38.727Z,15.30
2018-04-24T06:51:06.914Z,15.40
2018-04-24T06:53:35.042Z,15.40
2018-04-24T06:56:03.151Z,15.40
2018-04-24T06:58:31.295Z,15.50
2018-04-24T07:00:59.391Z,15.50
2018-04-24T07:03:27.516Z,15.50
2018-04-24T07:05:55.637Z,15.50
2018-04-24T07:08:23.758Z,15.60
2018-04-24T07:10:52.621Z,15.70
2018-04-24T07:13:20.734Z,15.70
2018-04-24T07:15:48.827Z,15.80
2018-04-24T07:18:16.931Z,15.80
2018-04-24T07:20:45.973Z,15.90
2018-04-24T07:23:14.093Z,16.00
2018-04-24T07:25:42.201Z,16.10
2018-04-24T07:28:10.299Z,16.30
2018-04-24T07:30:38.408Z,16.30
2018-04-24T07:33:07.003Z,16.50
2018-04-24T07:35:35.198Z,16.60
2018-04-24T07:38:03.310Z,16.80
2018-04-24T07:40:31.416Z,16.90
2018-04-24T07:42:59.527Z,17.00
2018-04-24T07:45:27.652Z,17.10
2018-04-24T07:47:56.454Z,17.10
2018-04-24T07:50:24.695Z,17.10
2018-04-24T07:52:52.964Z,17.00
2018-04-24T07:55:21.209Z,17.00
2018-04-24T07:57:49.416Z,17.00
2018-04-24T08:00:17.533Z,17.00
2018-04-24T08:02:45.686Z,17.00
2018-04-24T08:05:13.779Z,17.00
2018-04-24T08:07:41.919Z,17.00
2018-04-24T08:10:10.037Z,17.10
2018-04-24T08:12:38.142Z,17.20
2018-04-24T08:15:06.258Z,17.40
2018-04-24T08:17:34.346Z,17.50
2018-04-24T08:20:02.471Z,17.70
2018-04-24T08:22:40.371Z,17.80
2018-04-24T08:25:08.499Z,18.00
2018-04-24T08:27:36.608Z,18.20
2018-04-24T08:30:04.712Z,18.20
2018-04-24T08:32:33.706Z,18.30
2018-04-24T08:35:01.907Z,18.20
2018-04-24T08:37:30.071Z,18.10
2018-04-24T08:39:58.208Z,18.10
2018-04-24T08:42:26.635Z,18.10
2018-04-24T08:44:55.101Z,18.00
2018-04-24T08:47:23.240Z,18.00
2018-04-24T08:49:51.410Z,18.10
2018-04-24T08:52:19.617Z,18.10
2018-04-24T08:54:47.754Z,18.10
2018-04-24T08:57:15.857Z,18.10
2018-04-24T08:59:43.980Z,18.10
2018-04-24T09:02:13.242Z,18.10
2018-04-24T09:04:41.883Z,18.10
2018-04-24T09:07:10.112Z,18.10
2018-04-24T09:09:38.360Z,18.20
2018-04-24T09:12:06.520Z,18.20
2018-04-24T09:14:34.627Z,18.20
2018-04-24T09:17:02.746Z,18.30
2018-04-24T09:19:30.902Z,18.30
2018-04-24T09:21:59.024Z,18.40
2018-04-24T09:24:27.107Z,18.50
2018-04-24T09:26:55.311Z,18.60
2018-04-24T09:29:23.529Z,18.80
2018-04-24T09:31:51.622Z,19.00
2018-04-24T09:34:19.718Z,19.20
2018-04-24T09:36:47.825Z,19.40
2018-04-24T09:39:15.968Z,19.50
2018-04-24T09:41:44.848Z,19.60
2018-04-24T09:44:12.955Z,19.60
2018-04-24T09:46:41.075Z,19.70
2018-04-24T09:49:09.258Z,19.80
2018-04-24T09:51:37.482Z,19.90
2018-04-24T09:54:05.577Z,20.00
2018-04-24T09:56:33.737Z,20.00
2018-04-24T09:59:01.894Z,20.00
2018-04-24T10:01:30.685Z,19.90
2018-04-24T10:03:58.797Z,19.90
2018-04-24T10:06:26.963Z,19.80
2018-04-24T10:08:55.090Z,19.80
2018-04-24T10:11:23.225Z,20.00
2018-04-24T10:13:51.811Z,20.20
2018-04-24T10:16:20.006Z,20.40
2018-04-24T10:18:48.124Z,20.60
2018-04-24T10:21:16.238Z,20.80
2018-04-24T10:23:44.383Z,21.00
2018-04-24T10:26:13.393Z,21.10
2018-04-24T10:28:41.491Z,21.10
2018-04-24T10:31:10.376Z,21.20
2018-04-24T10:33:38.482Z,21.30
2018-04-24T10:36:06.592Z,21.40
2018-04-24T10:38:34.690Z,21.60
2018-04-24T10:41:02.806Z,21.90
2018-04-24T10:43:30.899Z,22.10
2018-04-24T10:45:59.770Z,22.10
2018-04-24T10:48:28.166Z,22.00
2018-04-24T10:50:56.272Z,21.90
2018-04-24T10:53:25.082Z,21.80
2018-04-24T10:55:53.943Z,21.80
2018-04-24T10:58:22.054Z,21.80
2018-04-24T11:00:50.899Z,21.80
2018-04-24T11:03:19.044Z,22.00
2018-04-24T11:05:47.166Z,22.20
2018-04-24T11:08:15.262Z,22.20
2018-04-24T11:10:43.379Z,22.10
2018-04-24T11:13:11.488Z,22.20
2018-04-24T11:15:39.594Z,22.20
2018-04-24T11:18:07.800Z,22.30
2018-04-24T11:20:35.847Z,22.50
2018-04-24T11:23:03.979Z,22.60
2018-04-24T11:25:32.114Z,22.90
2018-04-24T11:28:01.376Z,23.10
2018-04-24T11:30:29.481Z,23.20
2018-04-24T11:32:57.676Z,23.20
2018-04-24T11:35:26.366Z,23.30
2018-04-24T11:37:54.472Z,23.50
2018-04-24T11:40:22.575Z,23.60
2018-04-24T11:42:50.712Z,23.60
2018-04-24T11:45:18.924Z,23.60
2018-04-24T11:47:47.149Z,23.60
2018-04-24T11:50:16.013Z,23.80
2018-04-24T11:52:44.098Z,23.90
2018-04-24T11:55:13.156Z,23.90
2018-04-24T11:57:41.332Z,24.00
2018-04-24T12:00:09.432Z,24.10
2018-04-24T12:02:37.551Z,24.20
2018-04-24T12:05:05.677Z,24.40
2018-04-24T12:07:34.148Z,24.50
2018-04-24T12:10:02.281Z,24.60
2018-04-24T12:12:30.387Z,24.80
2018-04-24T12:14:58.485Z,24.80
2018-04-24T12:17:26.611Z,25.00
2018-04-24T12:19:54.715Z,25.20
2018-04-24T12:22:22.821Z,25.30
2018-04-24T12:24:51.116Z,25.40
2018-04-24T12:27:19.236Z,25.50
2018-04-24T12:29:47.409Z,25.90
2018-04-24T12:32:15.572Z,26.20
2018-04-24T12:34:43.682Z,26.30
2018-04-24T12:37:11.799Z,26.40
2018-04-24T12:39:39.931Z,26.40
2018-04-24T12:42:08.042Z,26.30
2018-04-24T12:44:36.137Z,26.30
2018-04-24T12:47:04.237Z,26.60
2018-04-24T12:49:32.581Z,27.00
2018-04-24T12:52:00.692Z,27.60
2018-04-24T12:54:29.042Z,28.30
2018-04-24T12:56:57.150Z,29.00
2018-04-24T12:59:25.267Z,29.10
2018-04-24T13:01:53.391Z,29.40
2018-04-24T13:04:22.299Z,29.80
2018-04-24T13:06:50.411Z,30.20
2018-04-24T13:09:18.512Z,30.70
2018-04-24T13:11:46.606Z,31.30
2018-04-24T13:14:14.716Z,31.60
2018-04-24T13:16:43.623Z,31.60
2018-04-24T13:19:11.788Z,31.50
2018-04-24T13:21:39.894Z,31.70
2018-04-24T13:24:08.017Z,31.70
2018-04-24T13:26:36.119Z,31.80
2018-04-24T13:29:04.235Z,31.60
2018-04-24T13:31:32.331Z,31.30
2018-04-24T13:34:00.447Z,31.00
2018-04-24T13:36:28.610Z,30.80
2018-04-24T13:38:56.933Z,30.80
2018-04-24T13:41:25.048Z,30.80
2018-04-24T13:43:53.149Z,30.70
2018-04-24T13:46:21.267Z,30.50
2018-04-24T13:48:49.598Z,30.50
2018-04-24T13:51:17.752Z,30.60
2018-04-24T13:53:45.878Z,30.70
2018-04-24T13:56:14.016Z,30.70
2018-04-24T13:58:42.192Z,30.90
2018-04-24T14:01:10.347Z,30.80
2018-04-24T14:03:38.473Z,30.40
2018-04-24T14:06:06.609Z,30.00
2018-04-24T14:08:34.754Z,29.60
2018-04-24T14:11:02.863Z,29.40
2018-04-24T14:13:30.978Z,29.30
2018-04-24T14:15:59.118Z,29.30
2018-04-24T14:18:27.297Z,29.40
2018-04-24T14:20:55.788Z,29.40
2018-04-24T14:23:24.659Z,29.50
2018-04-24T14:25:52.800Z,29.60
2018-04-24T14:28:20.902Z,29.70
2018-04-24T14:30:49.072Z,29.80
2018-04-24T14:33:17.165Z,29.60
2018-04-24T14:35:46.075Z,29.50
2018-04-24T14:38:14.197Z,29.40
2018-04-24T14:40:42.297Z,29.50
2018-04-24T14:43:10.407Z,29.50
2018-04-24T14:45:38.579Z,29.40
2018-04-24T14:48:06.691Z,29.10
2018-04-24T14:50:34.809Z,28.70
2018-04-24T14:53:02.945Z,28.60
2018-04-24T14:55:31.579Z,28.50
2018-04-24T14:58:00.889Z,28.30
2018-04-24T15:00:29.011Z,28.20
2018-04-24T15:02:57.885Z,28.30
2018-04-24T15:05:26.920Z,28.70
2018-04-24T15:07:55.202Z,28.70
2018-04-24T15:10:23.422Z,28.90
2018-04-24T15:12:51.662Z,29.00
2018-04-24T15:15:19.903Z,28.80
2018-04-24T15:17:48.774Z,28.70
2018-04-24T15:20:16.882Z,28.60
2018-04-24T15:22:45.131Z,28.60
2018-04-24T15:25:13.239Z,28.70
2018-04-24T15:27:41.381Z,28.80
2018-04-24T15:30:09.489Z,28.70
2018-04-24T15:32:37.624Z,28.80
2018-04-24T15:35:05.806Z,28.90
2018-04-24T15:37:33.969Z,28.80
2018-04-24T15:40:02.887Z,28.80
2018-04-24T15:42:30.999Z,29.20
2018-04-24T15:44:59.103Z,29.70
2018-04-24T15:47:27.254Z,30.10
2018-04-24T15:49:55.359Z,30.30
2018-04-24T15:52:24.251Z,30.40
2018-04-24T15:54:52.389Z,30.50
2018-04-24T15:57:20.572Z,30.60
2018-04-24T15:59:48.663Z,30.90
2018-04-24T16:02:16.776Z,31.00
2018-04-24T16:04:44.952Z,31.00
2018-04-24T16:07:13.064Z,31.10
2018-04-24T16:09:41.154Z,31.10
2018-04-24T16:12:10.080Z,31.30
2018-04-24T16:14:38.192Z,31.30
2018-04-24T16:17:06.291Z,31.10
2018-04-24T16:19:34.443Z,30.60
2018-04-24T16:22:02.540Z,29.90
2018-04-24T16:24:31.425Z,29.30
2018-04-24T16:26:59.515Z,28.80
2018-04-24T16:29:27.663Z,28.20
2018-04-24T16:31:55.774Z,27.80
2018-04-24T16:34:23.874Z,27.30
2018-04-24T16:36:52.037Z,26.90
2018-04-24T16:39:20.291Z,26.60
2018-04-24T16:41:48.535Z,26.30
2018-04-24T16:44:16.800Z,26.00
2018-04-24T16:46:45.252Z,25.80
2018-04-24T16:49:13.386Z,25.50
2018-04-24T16:51:41.534Z,25.30
2018-04-24T16:54:09.654Z,25.00
2018-04-24T16:56:37.767Z,24.80
2018-04-24T16:59:05.920Z,24.50
2018-04-24T17:01:34.030Z,24.30
2018-04-24T17:04:02.154Z,24.00
2018-04-24T17:06:30.267Z,23.90
2018-04-24T17:08:59.182Z,23.70
2018-04-24T17:11:27.432Z,23.60
2018-04-24T17:13:55.419Z,23.40
2018-04-24T17:16:23.527Z,23.30
2018-04-24T17:18:51.664Z,23.10
2018-04-24T17:21:21.525Z,22.90
2018-04-24T17:23:49.710Z,22.70
2018-04-24T17:26:18.152Z,22.60
2018-04-24T17:28:53.191Z,22.40
2018-04-24T17:31:22.214Z,22.30
2018-04-24T17:33:50.333Z,22.20
2018-04-24T17:36:19.224Z,22.10
2018-04-24T17:38:49.137Z,22.00
2018-04-24T17:41:17.259Z,21.90
2018-04-24T17:43:45.423Z,21.80
2018-04-24T17:46:13.649Z,21.60
2018-04-24T17:48:41.858Z,21.50
2018-04-24T17:51:10.938Z,21.40
2018-04-24T17:53:39.093Z,21.30
2018-04-24T17:56:13.593Z,21.20
2018-04-24T17:58:41.749Z,21.10
2018-04-24T18:01:09.991Z,21.00
2018-04-24T18:03:38.133Z,20.90
2018-04-24T18:06:06.227Z,20.70
2018-04-24T18:08:34.355Z,20.60
2018-04-24T18:11:02.517Z,20.40
2018-04-24T18:13:30.607Z,20.30
2018-04-24T18:15:58.729Z,20.10
2018-04-24T18:18:26.846Z,19.90
2018-04-24T18:20:55.739Z,19.70
2018-04-24T18:23:23.835Z,19.60
2018-04-24T18:25:52.043Z,19.40
2018-04-24T18:28:20.428Z,19.20
2018-04-24T18:30:48.565Z,19.00
2018-04-24T18:33:16.677Z,18.80
2018-04-24T18:35:44.781Z,18.60
2018-04-24T18:38:12.907Z,18.40
2018-04-24T18:40:41.031Z,18.20
2018-04-24T18:43:09.275Z,18.10
2018-04-24T18:45:37.476Z,17.90
2018-04-24T18:48:05.725Z,17.80
2018-04-24T18:50:34.393Z,17.70
2018-04-24T18:53:02.504Z,17.50
2018-04-24T18:55:30.619Z,17.30
2018-04-24T18:57:59.517Z,17.20
2018-04-24T19:00:28.407Z,17.00
2018-04-24T19:02:56.506Z,16.90
2018-04-24T19:05:24.635Z,16.80
2018-04-24T19:07:52.807Z,16.60
2018-04-24T19:10:20.927Z,16.50
2018-04-24T19:12:49.058Z,16.40
2018-04-24T19:15:17.157Z,16.30
2018-04-24T19:17:45.327Z,16.20
2018-04-24T19:20:13.427Z,16.10
2018-04-24T19:22:41.729Z,16.00
2018-04-24T19:25:16.247Z,15.80
2018-04-24T19:27:48.666Z,15.80
2018-04-24T19:30:16.807Z,15.60
2018-04-24T19:32:44.955Z,15.50
2018-04-24T19:35:14.399Z,15.50
2018-04-24T19:37:42.530Z,15.40
2018-04-24T19:40:16.068Z,15.30
2018-04-24T19:42:44.205Z,15.20
2018-04-24T19:45:13.088Z,15.10
2018-04-24T19:47:41.232Z,15.10
2018-04-24T19:50:14.880Z,15.00
2018-04-24T19:52:43.040Z,14.90
2018-04-24T19:55:16.619Z,14.90
2018-04-24T19:57:44.764Z,14.80
2018-04-24T20:00:13.631Z,14.70
2018-04-24T20:02:41.734Z,14.70
2018-04-24T20:05:09.870Z,14.60
2018-04-24T20:07:38.065Z,14.60
2018-04-24T20:10:07.102Z,14.50
2018-04-24T20:12:35.214Z,14.50
2018-04-24T20:15:03.315Z,14.40
2018-04-24T20:17:32.100Z,14.30
2018-04-24T20:20:00.279Z,14.30
2018-04-24T20:22:28.412Z,14.30
2018-04-24T20:24:56.599Z,14.20
2018-04-24T20:27:24.761Z,14.20
2018-04-24T20:29:52.907Z,14.10
2018-04-24T20:32:21.057Z,14.10
2018-04-24T20:34:49.912Z,14.00
2018-04-24T20:37:19.161Z,14.00
2018-04-24T20:39:47.271Z,13.90
2018-04-24T20:42:15.379Z,13.90
2018-04-24T20:44:43.578Z,13.80
2018-04-24T20:47:11.803Z,13.80
2018-04-24T20:49:40.471Z,13.70
2018-04-24T20:52:08.643Z,13.70
2018-04-24T20:54:36.742Z,13.60
2018-04-24T20:57:05.623Z,13.60
2018-04-24T20:59:33.761Z,13.50
2018-04-24T21:02:01.891Z,13.50
2018-04-24T21:04:30.014Z,13.40
2018-04-24T21:06:58.149Z,13.40
2018-04-24T21:09:26.268Z,13.40
2018-04-24T21:11:54.409Z,13.30
2018-04-24T21:14:22.531Z,13.30
2018-04-24T21:16:50.642Z,13.30
2018-04-24T21:19:18.775Z,13.20
2018-04-24T21:21:46.896Z,13.20
2018-04-24T21:24:15.008Z,13.20
2018-04-24T21:26:43.109Z,13.10
2018-04-24T21:29:12.408Z,13.10
2018-04-24T21:31:40.549Z,13.10
2018-04-24T21:34:08.646Z,13.10
2018-04-24T21:36:36.762Z,13.00
2018-04-24T21:39:06.542Z,13.00
2018-04-24T21:41:36.225Z,13.00
2018-04-24T21:44:04.355Z,13.00
2018-04-24T21:46:33.799Z,13.00
2018-04-24T21:49:01.899Z,13.00
2018-04-24T21:51:30.009Z,13.00
2018-04-24T21:53:58.979Z,13.00
2018-04-24T21:56:27.087Z,13.00
2018-04-24T21:58:55.203Z,13.00
2018-04-24T22:01:24.071Z,13.00
2018-04-24T22:03:52.215Z,13.00
2018-04-24T22:06:20.307Z,13.00
2018-04-24T22:08:48.456Z,13.00
2018-04-24T22:11:16.571Z,13.00
2018-04-24T22:13:45.469Z,13.00
2018-04-24T22:16:13.586Z,13.00
2018-04-24T22:18:41.701Z,13.00
2018-04-24T22:21:09.874Z,13.00
2018-04-24T22:23:37.946Z,13.00
2018-04-24T22:26:06.074Z,13.00
2018-04-24T22:28:34.164Z,13.00
2018-04-24T22:31:02.329Z,12.90
2018-04-24T22:33:30.448Z,12.90
2018-04-24T22:35:58.568Z,12.80
2018-04-24T22:38:26.708Z,12.80
2018-04-24T22:40:56.382Z,12.70
2018-04-24T22:43:25.616Z,12.70
2018-04-24T22:45:53.714Z,12.60
2018-04-24T22:48:22.614Z,12.50
2018-04-24T22:50:51.467Z,12.50
2018-04-24T22:53:20.431Z,12.50
2018-04-24T22:55:49.121Z,12.40
2018-04-24T22:58:17.449Z,12.40
2018-04-24T23:00:45.583Z,12.30
2018-04-24T23:03:14.485Z,12.30
2018-04-24T23:05:44.609Z,12.30
2018-04-24T23:08:14.789Z,12.20
2018-04-24T23:11:00.643Z,12.20
2018-04-24T23:13:46.381Z,12.10
2018-04-24T23:16:32.139Z,12.10
2018-04-24T23:19:17.775Z,12.10
2018-04-24T23:21:45.160Z,12.10
2018-04-24T23:24:13.793Z,12.10
2018-04-24T23:26:41.892Z,12.10
2018-04-24T23:29:09.999Z,12.10
2018-04-24T23:31:38.104Z,12.10
2018-04-24T23:34:06.311Z,12.20
2018-04-24T23:36:39.092Z,12.20
2018-04-24T23:39:07.201Z,12.20
2018-04-24T23:41:35.320Z,12.30
2018-04-24T23:44:03.454Z,12.30
2018-04-24T23:46:32.200Z,12.40
2018-04-24T23:49:00.328Z,12.50
2018-04-24T23:51:28.466Z,12.50
2018-04-24T23:53:56.599Z,12.50
2018-04-24T23:56:25.492Z,12.50
2018-04-24T23:58:54.657Z,12.40
